Time;durP1;ratioP1;P1;durP2;ratioP2;P2;SDS_P1;SDS_P2;PMS_P1;PMS_P2;Temp;Humidity;BMP_temperature;BMP_pressure;BME280_temperature;BME280_humidity;BME280_pressure;Samples;Min_cycle;Max_cycle;Signal;HPM_P1;HPM_P2
2023/03/04 00:00:06;;;;;;;32.63;17.80;;;5.70;97.80;;;;;;5092715;28;20809;-58
2023/03/04 00:02:33;;;;;;;33.63;17.70;;;5.70;97.80;;;;;;5092786;28;20965;-58
2023/03/04 00:05:00;;;;;;;30.13;16.70;;;5.70;97.70;;;;;;5093145;28;20851;-58
2023/03/04 00:07:26;;;;;;;30.00;17.07;;;5.70;97.60;;;;;;5092733;28;20447;-58
2023/03/04 00:09:53;;;;;;;29.70;15.90;;;5.70;97.80;;;;;;5092456;28;20487;-58
2023/03/04 00:12:21;;;;;;;33.70;16.70;;;5.70;97.80;;;;;;5092990;28;20447;-58
2023/03/04 00:14:48;;;;;;;29.20;15.47;;;5.60;97.90;;;;;;5092921;28;20455;-58
2023/03/04 00:17:14;;;;;;;24.47;15.87;;;5.60;97.70;;;;;;5093006;28;20451;-58
2023/03/04 00:19:41;;;;;;;31.33;16.43;;;5.60;97.60;;;;;;5093321;28;20820;-58
2023/03/04 00:22:08;;;;;;;27.13;16.53;;;5.60;97.60;;;;;;5094607;28;20451;-58
2023/03/04 00:24:35;;;;;;;25.17;15.30;;;5.60;97.50;;;;;;5093781;28;20456;-58
2023/03/04 00:27:01;;;;;;;27.83;14.90;;;5.60;97.40;;;;;;5093837;28;20489;-58
2023/03/04 00:29:29;;;;;;;26.73;15.43;;;5.60;97.40;;;;;;5093089;28;20479;-58
2023/03/04 00:31:56;;;;;;;24.57;15.17;;;5.60;97.40;;;;;;5093136;28;20871;-58
2023/03/04 00:34:23;;;;;;;26.40;13.17;;;5.60;97.40;;;;;;5094131;28;20456;-58
2023/03/04 00:36:50;;;;;;;21.03;13.13;;;5.60;97.40;;;;;;5096252;28;20933;-58
2023/03/04 00:39:16;;;;;;;23.83;13.93;;;5.70;97.40;;;;;;5096080;28;20864;-58
2023/03/04 00:41:43;;;;;;;21.43;13.33;;;5.70;97.20;;;;;;5096487;28;20451;-58
2023/03/04 00:44:10;;;;;;;25.70;14.73;;;5.70;97.20;;;;;;5096261;28;20455;-58
2023/03/04 00:46:38;;;;;;;23.33;12.97;;;5.70;97.10;;;;;;5095987;28;20451;-58
2023/03/04 00:49:04;;;;;;;21.93;11.87;;;5.70;97.10;;;;;;5096117;28;20470;-57
2023/03/04 00:51:31;;;;;;;22.40;11.93;;;5.70;97.00;;;;;;5096152;28;20483;-58
2023/03/04 00:53:57;;;;;;;20.00;12.73;;;5.70;96.90;;;;;;5096170;28;20493;-58
2023/03/04 00:56:24;;;;;;;21.40;11.47;;;5.80;96.90;;;;;;5096202;28;20518;-58
2023/03/04 00:58:51;;;;;;;22.03;12.53;;;5.80;96.80;;;;;;5096046;28;20448;-58
2023/03/04 01:01:17;;;;;;;21.53;12.90;;;5.70;96.70;;;;;;5096011;28;20463;-58
2023/03/04 01:03:46;;;;;;;23.63;11.50;;;5.70;97.00;;;;;;5095679;28;20439;-58
2023/03/04 01:06:13;;;;;;;20.10;11.23;;;5.70;96.70;;;;;;5095781;28;20440;-58
2023/03/04 01:08:40;;;;;;;20.03;11.03;;;5.70;96.60;;;;;;5095800;28;20458;-58
2023/03/04 01:11:07;;;;;;;22.33;10.30;;;5.80;96.70;;;;;;5096138;28;20494;-58
2023/03/04 01:13:33;;;;;;;22.40;11.70;;;5.80;96.60;;;;;;5095388;28;20953;-58
2023/03/04 01:16:02;;;;;;;20.57;11.40;;;5.80;96.70;;;;;;5095734;28;20455;-58
2023/03/04 01:18:28;;;;;;;18.67;9.50;;;5.90;96.40;;;;;;5095528;28;21018;-58
2023/03/04 01:20:57;;;;;;;14.20;9.40;;;5.80;96.30;;;;;;5095558;28;20467;-58
2023/03/04 01:23:24;;;;;;;18.03;10.60;;;5.90;96.40;;;;;;5095521;28;20448;-58
2023/03/04 01:25:50;;;;;;;17.53;9.87;;;5.90;96.20;;;;;;5095495;28;20458;-58
2023/03/04 01:28:17;;;;;;;17.53;8.77;;;5.80;96.00;;;;;;5095435;28;20447;-58
2023/03/04 01:30:44;;;;;;;15.40;9.23;;;5.80;95.90;;;;;;5095268;28;20841;-57
2023/03/04 01:33:10;;;;;;;14.70;8.07;;;5.80;96.00;;;;;;5095391;28;20448;-58
2023/03/04 01:35:37;;;;;;;19.63;9.63;;;5.80;96.10;;;;;;5095329;28;20448;-58
2023/03/04 01:38:05;;;;;;;13.33;7.00;;;5.80;96.10;;;;;;5094934;28;20448;-58
2023/03/04 01:40:32;;;;;;;18.20;8.90;;;5.70;96.20;;;;;;5095120;28;20468;-58
2023/03/04 01:42:59;;;;;;;14.70;8.20;;;5.70;96.30;;;;;;5095191;28;20455;-58
2023/03/04 01:45:26;;;;;;;16.67;7.67;;;5.70;96.30;;;;;;5094729;28;20998;-58
2023/03/04 01:47:53;;;;;;;17.33;8.40;;;5.70;96.50;;;;;;5095005;28;20447;-58
2023/03/04 01:50:26;;;;;;;18.53;8.10;;;5.70;96.60;;;;;;5094819;28;20487;-58
2023/03/04 01:52:52;;;;;;;24.63;9.50;;;5.80;96.60;;;;;;5095048;28;20451;-58
2023/03/04 01:55:22;;;;;;;18.57;7.77;;;5.80;96.60;;;;;;5094881;28;20824;-58
2023/03/04 01:57:50;;;;;;;14.60;7.93;;;5.70;96.70;;;;;;5094894;28;20455;-58
2023/03/04 02:00:30;;;;;;;15.00;8.07;;;5.70;96.80;;;;;;5094367;28;20981;-58
2023/03/04 02:02:59;;;;;;;17.77;7.87;;;5.60;96.80;;;;;;5094841;28;20432;-58
2023/03/04 02:05:27;;;;;;;16.60;7.43;;;5.60;97.20;;;;;;5094892;28;20493;-58
2023/03/04 02:07:56;;;;;;;18.40;8.40;;;5.60;97.30;;;;;;5094841;28;20460;-58
2023/03/04 02:10:25;;;;;;;17.40;8.00;;;5.60;97.30;;;;;;5094571;28;20490;-58
2023/03/04 02:12:52;;;;;;;16.73;8.83;;;5.60;97.30;;;;;;5094219;28;21007;-58
2023/03/04 02:15:20;;;;;;;16.00;8.47;;;5.60;97.50;;;;;;5094678;28;20446;-58
2023/03/04 02:17:47;;;;;;;17.13;7.60;;;5.60;97.60;;;;;;5094596;28;20448;-58
2023/03/04 02:20:28;;;;;;;16.30;7.20;;;5.60;97.70;;;;;;5094550;28;20459;-57
2023/03/04 02:23:04;;;;;;;11.70;6.20;;;5.60;97.50;;;;;;5094501;28;20432;-58
2023/03/04 02:25:37;;;;;;;19.17;6.70;;;5.60;97.40;;;;;;5094365;28;20456;-58
2023/03/04 02:28:05;;;;;;;17.37;6.67;;;5.70;97.40;;;;;;5094368;28;20432;-58
2023/03/04 02:30:32;;;;;;;16.23;6.83;;;5.70;97.40;;;;;;5094046;28;20498;-58
2023/03/04 02:32:59;;;;;;;14.93;5.03;;;5.70;97.50;;;;;;5094202;28;20809;-58
2023/03/04 02:35:25;;;;;;;11.70;5.23;;;5.70;97.50;;;;;;5094124;28;20482;-58
2023/03/04 02:37:52;;;;;;;13.00;5.77;;;5.80;97.50;;;;;;5093810;28;20562;-58
2023/03/04 02:40:23;;;;;;;16.40;5.90;;;5.80;97.60;;;;;;5093986;28;20459;-58
2023/03/04 02:42:50;;;;;;;13.03;5.90;;;5.80;97.50;;;;;;5094025;28;20427;-58
2023/03/04 02:45:38;;;;;;;13.93;5.30;;;5.80;97.40;;;;;;5093921;28;20455;-58
2023/03/04 02:48:06;;;;;;;10.53;4.80;;;5.90;97.40;;;;;;5093984;28;20451;-58
2023/03/04 02:50:36;;;;;;;15.37;5.73;;;5.90;97.30;;;;;;5093756;28;20495;-58
2023/03/04 02:53:02;;;;;;;13.40;5.00;;;5.90;97.10;;;;;;5093861;28;20953;-58
2023/03/04 02:55:31;;;;;;;12.17;4.33;;;5.90;97.00;;;;;;5093524;28;20933;-58
2023/03/04 02:57:57;;;;;;;15.87;4.23;;;5.90;96.90;;;;;;5093103;28;20450;-57
2023/03/04 03:00:24;;;;;;;15.83;4.40;;;6.00;97.00;;;;;;5093618;28;20460;-58
2023/03/04 03:02:52;;;;;;;17.80;6.27;;;6.00;96.80;;;;;;5093726;28;20455;-58
2023/03/04 03:05:20;;;;;;;17.80;5.10;;;6.00;97.10;;;;;;5093673;28;20447;-58
2023/03/04 03:07:46;;;;;;;23.90;5.00;;;6.00;96.80;;;;;;5093691;28;20459;-58
2023/03/04 03:10:13;;;;;;;14.47;3.50;;;6.00;96.70;;;;;;5092964;28;20992;-58
2023/03/04 03:12:40;;;;;;;14.57;4.77;;;6.00;96.60;;;;;;5094168;28;20458;-58
2023/03/04 03:15:08;;;;;;;10.97;4.57;;;6.00;96.70;;;;;;5093548;28;20443;-58
2023/03/04 03:17:34;;;;;;;18.37;5.33;;;6.00;96.70;;;;;;5093689;28;20447;-58
2023/03/04 03:20:03;;;;;;;17.67;4.20;;;6.00;96.60;;;;;;5094229;28;20525;-58
2023/03/04 03:22:30;;;;;;;17.13;4.07;;;6.00;96.60;;;;;;5094634;28;20451;-58
2023/03/04 03:24:57;;;;;;;18.60;4.60;;;6.00;96.50;;;;;;5093588;28;20975;-57
2023/03/04 03:27:24;;;;;;;14.13;4.10;;;6.00;96.50;;;;;;5093936;28;20454;-58
2023/03/04 03:29:50;;;;;;;13.73;4.97;;;5.90;96.60;;;;;;5093571;28;20464;-58
2023/03/04 03:32:17;;;;;;;13.97;4.43;;;5.90;96.70;;;;;;5093055;28;20483;-58
2023/03/04 03:34:44;;;;;;;10.27;3.60;;;5.90;96.80;;;;;;5093700;28;20447;-58
2023/03/04 03:37:12;;;;;;;14.13;4.93;;;6.00;96.80;;;;;;5093465;28;20456;-58
2023/03/04 03:39:38;;;;;;;17.50;5.63;;;5.90;96.80;;;;;;5093375;28;20459;-58
2023/03/04 03:42:05;;;;;;;14.87;4.80;;;5.90;96.90;;;;;;5093839;28;20497;-58
2023/03/04 03:44:32;;;;;;;15.53;3.90;;;6.00;97.00;;;;;;5093401;28;20451;-58
2023/03/04 03:46:59;;;;;;;13.73;5.60;;;6.00;97.00;;;;;;5093837;28;20929;-58
2023/03/04 03:49:26;;;;;;;11.47;3.80;;;6.00;97.00;;;;;;5093211;28;20476;-58
2023/03/04 03:51:52;;;;;;;22.37;5.60;;;6.00;96.70;;;;;;5092817;28;20845;-58
2023/03/04 03:54:21;;;;;;;12.70;4.87;;;5.90;96.80;;;;;;5093249;28;20451;-58
2023/03/04 03:56:47;;;;;;;12.17;5.40;;;5.90;96.80;;;;;;5093235;28;20447;-58
2023/03/04 03:59:14;;;;;;;15.33;4.97;;;6.00;96.70;;;;;;5092839;28;20507;-58
2023/03/04 04:01:41;;;;;;;12.33;4.27;;;5.90;96.50;;;;;;5093142;28;20443;-58
2023/03/04 04:04:08;;;;;;;9.83;3.57;;;5.90;96.50;;;;;;5093911;28;20436;-58
2023/03/04 04:06:34;;;;;;;10.50;3.80;;;5.90;96.60;;;;;;5092884;28;20447;-58
2023/03/04 04:09:01;;;;;;;10.33;3.40;;;6.00;96.60;;;;;;5093634;28;20466;-58
2023/03/04 04:11:29;;;;;;;14.97;4.10;;;6.00;96.60;;;;;;5096952;28;20463;-58
2023/03/04 04:13:56;;;;;;;13.30;4.20;;;6.10;96.60;;;;;;5096938;28;20447;-58
2023/03/04 04:16:22;;;;;;;11.17;4.20;;;6.10;96.40;;;;;;5096933;28;20440;-58
2023/03/04 04:18:49;;;;;;;9.00;2.97;;;6.00;96.40;;;;;;5096505;28;20964;-58
2023/03/04 04:21:16;;;;;;;9.17;4.27;;;6.10;96.30;;;;;;5096699;28;20463;-58
2023/03/04 04:23:42;;;;;;;19.73;4.17;;;6.00;96.00;;;;;;5096435;28;20811;-58
2023/03/04 04:26:09;;;;;;;12.33;4.57;;;6.00;96.30;;;;;;5096684;28;20447;-58
2023/03/04 04:28:37;;;;;;;10.93;3.60;;;6.00;96.20;;;;;;5096691;28;20444;-58
2023/03/04 04:31:07;;;;;;;12.47;4.17;;;6.00;96.30;;;;;;5096471;28;20486;-58
2023/03/04 04:33:36;;;;;;;12.33;4.20;;;6.10;96.20;;;;;;5096495;28;20483;-58
2023/03/04 04:36:03;;;;;;;10.03;3.40;;;6.10;96.10;;;;;;5096353;28;20459;-58
2023/03/04 04:38:31;;;;;;;11.87;4.37;;;6.10;96.10;;;;;;5096119;28;20813;-58
2023/03/04 04:40:58;;;;;;;13.20;4.07;;;6.10;96.10;;;;;;5096375;28;20467;-58
2023/03/04 04:43:25;;;;;;;10.50;4.17;;;6.10;96.00;;;;;;5096224;28;20451;-58
2023/03/04 04:45:53;;;;;;;10.17;3.30;;;6.10;96.00;;;;;;5096333;28;20448;-58
2023/03/04 04:48:20;;;;;;;14.30;3.17;;;6.20;96.00;;;;;;5096804;28;20498;-58
2023/03/04 04:50:46;;;;;;;13.47;3.73;;;6.20;96.00;;;;;;5096008;28;20467;-58
2023/03/04 04:53:13;;;;;;;9.20;4.07;;;6.20;96.00;;;;;;5096092;28;20443;-58
2023/03/04 04:55:40;;;;;;;15.87;4.00;;;6.20;96.00;;;;;;5095792;28;20972;-58
2023/03/04 04:58:07;;;;;;;18.47;3.57;;;6.20;96.00;;;;;;5096074;28;20439;-58
2023/03/04 05:00:34;;;;;;;14.73;4.23;;;6.20;96.00;;;;;;5095629;28;20976;-58
2023/03/04 05:03:02;;;;;;;16.50;4.07;;;6.20;96.10;;;;;;5095881;28;20459;-58
2023/03/04 05:05:28;;;;;;;16.50;4.17;;;6.20;96.10;;;;;;5095987;28;20444;-58
2023/03/04 05:07:55;;;;;;;14.43;4.30;;;6.20;96.20;;;;;;5095647;28;20942;-58
2023/03/04 05:10:22;;;;;;;12.17;3.30;;;6.20;96.10;;;;;;5095449;28;20495;-58
2023/03/04 05:12:49;;;;;;;10.10;4.17;;;6.20;96.10;;;;;;5095750;28;20484;-58
2023/03/04 05:15:16;;;;;;;14.87;4.03;;;6.20;96.00;;;;;;5095701;28;20526;-58
2023/03/04 05:17:43;;;;;;;13.23;4.53;;;6.20;96.00;;;;;;5095658;28;20452;-57
2023/03/04 05:20:12;;;;;;;12.30;4.33;;;6.20;95.90;;;;;;5095276;28;20588;-58
2023/03/04 05:22:38;;;;;;;11.13;4.90;;;6.20;95.80;;;;;;5095518;28;20440;-58
2023/03/04 05:25:06;;;;;;;17.17;4.27;;;6.20;95.70;;;;;;5095518;28;20507;-58
2023/03/04 05:27:33;;;;;;;12.50;3.90;;;6.20;95.70;;;;;;5095424;28;20479;-58
2023/03/04 05:30:00;;;;;;;11.73;3.60;;;6.20;95.70;;;;;;5095045;28;20471;-58
2023/03/04 05:32:27;;;;;;;15.80;4.93;;;6.20;95.80;;;;;;5095425;28;20481;-58
2023/03/04 05:34:53;;;;;;;11.87;3.60;;;6.20;96.00;;;;;;5095329;28;20480;-58
2023/03/04 05:37:21;;;;;;;10.93;3.43;;;6.20;96.00;;;;;;5095304;28;20455;-58
2023/03/04 05:39:48;;;;;;;4.90;2.90;;;6.20;95.90;;;;;;5095203;28;20470;-58
2023/03/04 05:42:15;;;;;;;8.70;3.50;;;6.20;95.90;;;;;;5095361;28;20436;-58
2023/03/04 05:44:41;;;;;;;7.40;3.40;;;6.20;95.90;;;;;;5094792;28;20891;-58
2023/03/04 05:47:08;;;;;;;11.50;3.17;;;6.20;95.90;;;;;;5095192;28;20516;-58
2023/03/04 05:49:35;;;;;;;10.10;3.27;;;6.20;95.90;;;;;;5094730;28;20475;-58
2023/03/04 05:52:01;;;;;;;15.43;3.60;;;6.20;95.90;;;;;;5094968;28;20471;-58
2023/03/04 05:54:29;;;;;;;12.70;3.90;;;6.20;95.80;;;;;;5095153;28;20448;-58
2023/03/04 05:56:56;;;;;;;9.90;3.27;;;6.20;95.90;;;;;;5094978;28;20443;-58
2023/03/04 05:59:23;;;;;;;11.60;3.33;;;6.30;95.90;;;;;;5094869;28;20468;-58
2023/03/04 06:01:50;;;;;;;13.47;2.80;;;6.30;96.00;;;;;;5095093;28;20444;-58
2023/03/04 06:04:17;;;;;;;8.70;3.80;;;6.30;95.90;;;;;;5094567;28;20966;-58
2023/03/04 06:06:45;;;;;;;9.47;3.20;;;6.30;95.90;;;;;;5094770;28;20447;-58
2023/03/04 06:09:12;;;;;;;7.47;2.90;;;6.30;95.90;;;;;;5094443;28;20489;-58
2023/03/04 06:11:40;;;;;;;8.47;2.80;;;6.40;95.90;;;;;;5095062;28;21037;-58
2023/03/04 06:14:07;;;;;;;10.60;3.20;;;6.40;96.20;;;;;;5097588;28;20448;-58
2023/03/04 06:16:34;;;;;;;14.83;3.27;;;6.40;96.20;;;;;;5096701;28;20940;-58
2023/03/04 06:19:00;;;;;;;9.53;2.80;;;6.40;95.80;;;;;;5096556;28;20525;-58
2023/03/04 06:21:27;;;;;;;9.60;3.70;;;6.40;95.80;;;;;;5095877;28;20493;-58
2023/03/04 06:23:54;;;;;;;9.67;3.30;;;6.40;95.90;;;;;;5095184;28;20451;-58
2023/03/04 06:26:20;;;;;;;11.97;3.87;;;6.40;96.10;;;;;;5094465;28;20461;-58
2023/03/04 06:28:48;;;;;;;14.93;3.27;;;6.40;96.10;;;;;;5094528;28;20452;-58
2023/03/04 06:31:15;;;;;;;11.93;4.23;;;6.40;96.10;;;;;;5094023;28;20468;-58
2023/03/04 06:33:42;;;;;;;12.53;3.00;;;6.30;96.00;;;;;;5094190;28;20455;-58
2023/03/04 06:36:08;;;;;;;10.43;3.43;;;6.30;96.00;;;;;;5094011;28;20952;-58
2023/03/04 06:38:35;;;;;;;9.97;3.20;;;6.30;95.80;;;;;;5094326;28;20447;-57
2023/03/04 06:41:07;;;;;;;12.60;2.53;;;6.30;95.50;;;;;;5094050;28;20467;-57
2023/03/04 06:43:34;;;;;;;13.43;2.40;;;6.30;95.60;;;;;;5094099;28;20507;-57
2023/03/04 06:46:02;;;;;;;10.90;3.20;;;6.20;95.60;;;;;;5094051;28;20453;-57
2023/03/04 06:48:29;;;;;;;7.40;3.03;;;6.20;95.60;;;;;;5094005;28;20512;-57
2023/03/04 06:50:56;;;;;;;19.03;3.20;;;6.20;95.60;;;;;;5093973;28;20471;-58
2023/03/04 06:53:22;;;;;;;4.97;2.47;;;6.20;95.60;;;;;;5094242;28;20525;-57
2023/03/04 06:55:49;;;;;;;5.73;2.70;;;6.20;95.50;;;;;;5093890;28;20448;-57
2023/03/04 06:58:16;;;;;;;7.50;3.07;;;6.30;95.40;;;;;;5093815;28;20436;-57
2023/03/04 07:00:43;;;;;;;9.70;3.33;;;6.30;95.40;;;;;;5093743;28;20502;-57
2023/03/04 07:03:12;;;;;;;13.43;3.80;;;6.30;95.60;;;;;;5094811;28;20443;-57
2023/03/04 07:05:39;;;;;;;8.90;3.00;;;6.30;95.60;;;;;;5093381;28;20949;-58
2023/03/04 07:08:06;;;;;;;7.87;2.70;;;6.30;95.40;;;;;;5093694;28;20474;-58
2023/03/04 07:10:33;;;;;;;7.23;3.27;;;6.30;95.50;;;;;;5093263;28;21015;-58
2023/03/04 07:13:00;;;;;;;8.73;3.10;;;6.40;95.60;;;;;;5093336;28;20484;-56
2023/03/04 07:15:27;;;;;;;10.17;3.20;;;6.40;95.40;;;;;;5093597;28;20447;-58
2023/03/04 07:17:54;;;;;;;7.70;4.23;;;6.40;95.40;;;;;;5093558;28;20815;-57
2023/03/04 07:20:22;;;;;;;8.87;3.37;;;6.40;95.30;;;;;;5093347;28;20467;-57
2023/03/04 07:22:49;;;;;;;16.17;3.90;;;6.50;95.30;;;;;;5093504;28;20444;-58
2023/03/04 07:25:16;;;;;;;7.10;2.90;;;6.50;95.30;;;;;;5093443;28;20448;-58
2023/03/04 07:27:43;;;;;;;6.73;2.93;;;6.50;95.40;;;;;;5093415;28;20452;-57
2023/03/04 07:30:11;;;;;;;11.50;2.90;;;6.50;95.30;;;;;;5093495;28;20474;-58
2023/03/04 07:32:38;;;;;;;8.87;2.83;;;6.60;95.30;;;;;;5093513;28;20491;-58
2023/03/04 07:35:05;;;;;;;6.83;3.37;;;6.60;95.30;;;;;;5093400;28;20443;-58
2023/03/04 07:37:34;;;;;;;8.00;2.83;;;6.60;95.30;;;;;;5093332;28;20451;-57
2023/03/04 07:40:00;;;;;;;12.50;2.63;;;6.70;95.40;;;;;;5093371;28;20478;-57
2023/03/04 07:42:27;;;;;;;12.80;3.17;;;6.80;95.30;;;;;;5093316;28;20444;-58
2023/03/04 07:44:55;;;;;;;11.63;3.03;;;6.70;94.90;;;;;;5097234;28;20454;-58
2023/03/04 07:47:21;;;;;;;7.63;2.83;;;6.70;95.10;;;;;;5097206;28;20459;-58
2023/03/04 07:49:48;;;;;;;9.70;2.40;;;6.80;95.30;;;;;;5097407;28;20463;-57
2023/03/04 07:52:15;;;;;;;7.87;2.60;;;6.80;95.00;;;;;;5097290;28;20511;-57
2023/03/04 07:54:43;;;;;;;8.80;2.50;;;6.90;95.00;;;;;;5097273;28;20451;-56
2023/03/04 07:57:09;;;;;;;6.63;4.70;;;7.00;94.80;;;;;;5097179;28;20451;-57
2023/03/04 07:59:36;;;;;;;8.67;3.67;;;7.00;95.10;;;;;;5097106;28;20475;-57
2023/03/04 08:02:03;;;;;;;11.80;1.90;;;7.10;94.80;;;;;;5097066;28;20447;-57
2023/03/04 08:04:29;;;;;;;5.50;2.13;;;7.10;94.70;;;;;;5096989;28;20471;-57
2023/03/04 08:06:56;;;;;;;16.60;3.00;;;7.20;94.70;;;;;;5097029;28;20459;-58
2023/03/04 08:09:23;;;;;;;11.33;4.17;;;7.20;94.40;;;;;;5096501;28;20479;-58
2023/03/04 08:11:51;;;;;;;9.03;2.00;;;7.20;94.60;;;;;;5096877;28;20434;-58
2023/03/04 08:14:17;;;;;;;9.30;2.80;;;7.20;94.90;;;;;;5096889;28;20439;-58
2023/03/04 08:16:44;;;;;;;81.17;6.83;;;7.30;94.70;;;;;;5096739;28;20443;-58
2023/03/04 08:19:11;;;;;;;22.63;2.73;;;7.30;94.60;;;;;;5096685;28;20449;-57
2023/03/04 08:21:38;;;;;;;8.93;2.10;;;7.30;94.80;;;;;;5096822;28;20447;-58
2023/03/04 08:24:06;;;;;;;6.30;2.70;;;7.30;94.60;;;;;;5096737;28;20447;-58
2023/03/04 08:26:37;;;;;;;3.97;1.70;;;7.30;94.60;;;;;;5096657;28;20530;-58
2023/03/04 08:29:05;;;;;;;5.37;1.93;;;7.40;94.70;;;;;;5096674;28;20424;-58
2023/03/04 08:31:33;;;;;;;3.93;1.63;;;7.40;94.70;;;;;;5096583;28;20455;-58
2023/03/04 08:34:00;;;;;;;3.73;1.67;;;7.40;94.40;;;;;;5096428;28;20479;-58
2023/03/04 08:36:26;;;;;;;5.90;1.80;;;7.30;94.60;;;;;;5096491;28;20447;-58
2023/03/04 08:38:53;;;;;;;5.93;2.20;;;7.30;94.70;;;;;;5096477;28;20448;-58
2023/03/04 08:41:21;;;;;;;8.17;2.40;;;7.30;94.90;;;;;;5096361;28;20456;-58
2023/03/04 08:43:48;;;;;;;7.80;1.83;;;7.30;95.60;;;;;;5096314;28;20452;-58
2023/03/04 08:46:16;;;;;;;7.63;2.10;;;7.30;95.60;;;;;;5096117;28;20956;-58
2023/03/04 08:48:43;;;;;;;4.87;1.93;;;7.30;96.00;;;;;;5096722;28;20819;-58
2023/03/04 08:51:11;;;;;;;7.90;2.10;;;7.30;96.40;;;;;;5096294;28;20998;-58
2023/03/04 08:53:39;;;;;;;4.83;2.00;;;7.40;96.80;;;;;;5096076;28;20484;-58
2023/03/04 08:56:07;;;;;;;8.53;1.83;;;7.40;97.50;;;;;;5095521;28;20452;-58
2023/03/04 08:58:33;;;;;;;2.77;1.53;;;7.60;97.40;;;;;;5096257;28;20491;-58
2023/03/04 09:01:01;;;;;;;5.80;1.70;;;7.60;97.60;;;;;;5096223;28;20470;-58
2023/03/04 09:03:29;;;;;;;7.13;2.40;;;7.60;96.70;;;;;;5096365;28;20451;-58
2023/03/04 09:05:56;;;;;;;9.90;2.60;;;7.60;96.60;;;;;;5096210;28;20452;-57
2023/03/04 09:08:23;;;;;;;6.33;2.13;;;7.70;96.60;;;;;;5095638;28;20820;-58
2023/03/04 09:10:53;;;;;;;5.70;1.73;;;7.90;96.80;;;;;;5095349;28;20479;-58
2023/03/04 09:13:20;;;;;;;8.80;2.40;;;7.90;96.30;;;;;;5095848;28;20471;-58
2023/03/04 09:15:48;;;;;;;8.40;2.30;;;8.00;96.30;;;;;;5096020;28;20452;-59
2023/03/04 09:18:16;;;;;;;5.97;2.30;;;8.10;96.30;;;;;;5097392;28;20447;-59
2023/03/04 09:20:45;;;;;;;4.77;2.20;;;7.90;95.60;;;;;;5097365;28;20560;-59
2023/03/04 09:23:12;;;;;;;11.43;2.53;;;7.80;96.00;;;;;;5096636;28;20440;-59
2023/03/04 09:25:39;;;;;;;9.50;3.13;;;7.80;97.00;;;;;;5096252;28;20455;-59
2023/03/04 09:28:06;;;;;;;5.53;2.10;;;7.90;96.90;;;;;;5095610;28;20500;-58
2023/03/04 09:30:34;;;;;;;8.40;2.70;;;7.90;96.00;;;;;;5095848;28;20468;-59
2023/03/04 09:33:01;;;;;;;10.40;2.60;;;8.00;95.80;;;;;;5095742;28;20475;-58
2023/03/04 09:35:28;;;;;;;5.43;3.07;;;7.90;95.50;;;;;;5095474;28;20447;-58
2023/03/04 09:37:57;;;;;;;11.67;2.80;;;8.00;96.30;;;;;;5095464;28;20871;-58
2023/03/04 09:40:27;;;;;;;10.00;2.50;;;8.10;95.80;;;;;;5094946;28;21023;-59
2023/03/04 09:42:57;;;;;;;10.10;3.47;;;8.30;96.00;;;;;;5095098;28;20435;-59
2023/03/04 09:45:29;;;;;;;10.27;2.37;;;8.40;95.00;;;;;;5094934;28;20487;-59
2023/03/04 09:47:57;;;;;;;6.93;2.80;;;8.40;94.60;;;;;;5095212;28;20438;-59
2023/03/04 09:50:24;;;;;;;7.83;2.73;;;8.40;94.50;;;;;;5095018;28;20467;-59
2023/03/04 09:53:06;;;;;;;8.60;2.53;;;8.40;94.60;;;;;;5095071;28;20486;-59
2023/03/04 09:55:35;;;;;;;5.07;2.23;;;8.40;94.40;;;;;;5094989;28;20442;-58
2023/03/04 09:58:07;;;;;;;10.73;3.33;;;8.30;94.50;;;;;;5094947;28;20447;-58
2023/03/04 10:00:39;;;;;;;2.77;1.87;;;8.30;94.30;;;;;;5094757;28;20463;-59
2023/03/04 10:03:14;;;;;;;6.83;2.50;;;8.40;94.70;;;;;;5095165;28;20428;-59
2023/03/04 10:05:45;;;;;;;5.53;2.00;;;8.50;95.10;;;;;;5094886;28;20432;-58
2023/03/04 10:08:32;;;;;;;8.03;2.27;;;8.40;95.50;;;;;;5094700;28;20615;-58
2023/03/04 10:11:00;;;;;;;2.97;1.93;;;8.40;95.90;;;;;;5094280;28;20472;-58
2023/03/04 10:13:35;;;;;;;4.57;2.00;;;8.50;95.70;;;;;;5094537;28;20483;-58
2023/03/04 10:16:05;;;;;;;2.50;1.47;;;8.50;95.60;;;;;;5094568;28;20446;-58
2023/03/04 10:18:37;;;;;;;3.83;1.60;;;8.50;95.20;;;;;;5094606;28;20552;-58
2023/03/04 10:21:13;;;;;;;4.03;1.83;;;8.60;95.30;;;;;;5094501;28;20496;-58
2023/03/04 10:23:41;;;;;;;5.00;1.67;;;8.70;94.60;;;;;;5094484;28;20423;-58
2023/03/04 10:26:14;;;;;;;5.30;2.13;;;8.80;94.10;;;;;;5094367;28;20439;-58
2023/03/04 10:28:41;;;;;;;4.13;1.97;;;8.80;93.90;;;;;;5094441;28;20443;-58
2023/03/04 10:31:15;;;;;;;3.13;1.60;;;8.90;94.70;;;;;;5094197;28;20471;-58
2023/03/04 10:33:41;;;;;;;3.73;2.30;;;9.10;95.10;;;;;;5094167;28;20478;-58
2023/03/04 10:36:26;;;;;;;6.63;2.20;;;9.10;94.30;;;;;;5094122;28;20469;-58
2023/03/04 10:38:58;;;;;;;6.23;1.57;;;9.40;93.60;;;;;;5093993;28;20432;-58
2023/03/04 10:41:27;;;;;;;5.30;1.90;;;9.50;92.40;;;;;;5094095;28;20431;-58
2023/03/04 10:44:01;;;;;;;5.03;2.10;;;9.40;92.00;;;;;;5094171;28;20451;-57
2023/03/04 10:46:28;;;;;;;2.73;1.50;;;9.50;92.30;;;;;;5093800;28;20780;-58
2023/03/04 10:48:55;;;;;;;5.30;2.13;;;9.70;91.80;;;;;;5093931;28;20476;-58
2023/03/04 10:51:24;;;;;;;2.93;1.80;;;9.80;91.30;;;;;;5093986;28;20564;-58
2023/03/04 10:53:56;;;;;;;4.67;2.00;;;9.90;91.30;;;;;;5093517;28;21020;-58
2023/03/04 10:56:34;;;;;;;3.37;1.83;;;10.10;90.30;;;;;;5093668;28;20909;-58
2023/03/04 10:59:38;;;;;;;2.43;1.37;;;10.10;87.80;;;;;;5093755;28;20535;-58
2023/03/04 11:02:16;;;;;;;3.97;1.80;;;10.00;90.00;;;;;;5093848;28;20452;-57
2023/03/04 11:04:43;;;;;;;2.50;1.37;;;10.10;90.00;;;;;;5093860;28;20435;-58
2023/03/04 11:07:10;;;;;;;4.50;1.20;;;10.30;90.10;;;;;;5093403;28;20572;-58
2023/03/04 11:09:39;;;;;;;3.63;1.47;;;10.30;87.80;;;;;;5093351;28;20494;-58
2023/03/04 11:12:11;;;;;;;3.37;1.70;;;10.30;86.90;;;;;;5093656;28;20527;-58
2023/03/04 11:14:43;;;;;;;5.00;1.63;;;10.20;86.50;;;;;;5093466;28;20468;-58
2023/03/04 11:17:24;;;;;;;6.73;1.77;;;10.00;87.40;;;;;;5093632;28;20486;-58
2023/03/04 11:19:56;;;;;;;4.10;1.40;;;9.70;89.20;;;;;;5093322;28;20496;-58
2023/03/04 11:22:24;;;;;;;6.20;1.60;;;9.60;90.30;;;;;;5093587;28;20443;-58
2023/03/04 11:24:58;;;;;;;4.23;1.57;;;9.60;90.70;;;;;;5093525;28;20455;-58
2023/03/04 11:27:34;;;;;;;4.93;1.40;;;9.70;90.90;;;;;;5093515;28;20489;-58
2023/03/04 11:30:16;;;;;;;4.53;1.37;;;9.80;90.90;;;;;;5093460;28;20984;-58
2023/03/04 11:32:46;;;;;;;2.97;1.70;;;10.10;90.00;;;;;;5093341;28;20468;-57
2023/03/04 11:35:20;;;;;;;2.90;1.53;;;10.50;88.10;;;;;;5093346;28;20436;-57
2023/03/04 11:37:53;;;;;;;2.73;1.57;;;10.80;86.30;;;;;;5093361;28;20432;-57
2023/03/04 11:40:28;;;;;;;2.73;1.13;;;11.10;85.90;;;;;;5093296;28;20463;-58
2023/03/04 11:43:01;;;;;;;1.93;1.73;;;11.10;83.40;;;;;;5093360;28;20431;-58
2023/03/04 11:45:37;;;;;;;2.50;1.20;;;11.30;83.00;;;;;;5093266;28;20519;-58
2023/03/04 11:48:12;;;;;;;2.90;1.43;;;11.40;83.40;;;;;;5093195;28;20806;-58
2023/03/04 11:50:48;;;;;;;5.50;1.50;;;11.60;83.50;;;;;;5093186;28;20833;-58
2023/03/04 11:53:35;;;;;;;2.77;1.40;;;11.70;81.00;;;;;;5093127;28;20464;-58
2023/03/04 11:56:13;;;;;;;2.40;1.13;;;11.80;79.60;;;;;;5093178;28;20440;-59
2023/03/04 11:59:03;;;;;;;5.73;1.73;;;11.70;78.90;;;;;;5093186;28;20427;-58
2023/03/04 12:01:39;;;;;;;3.90;1.63;;;11.60;79.20;;;;;;5093170;28;20437;-59
2023/03/04 12:04:28;;;;;;;2.37;1.00;;;11.30;79.90;;;;;;5092628;28;20920;-58
2023/03/04 12:07:09;;;;;;;3.50;1.50;;;11.00;80.40;;;;;;5092942;28;20436;-58
2023/03/04 12:09:43;;;;;;;6.80;4.03;;;10.80;81.80;;;;;;5092678;28;20855;-58
2023/03/04 12:12:26;;;;;;;4.80;2.83;;;10.70;84.60;;;;;;5093173;28;20929;-58
2023/03/04 12:15:02;;;;;;;1.60;1.43;;;10.60;85.80;;;;;;5094551;28;20829;-58
2023/03/04 12:17:48;;;;;;;3.87;2.10;;;10.60;86.30;;;;;;5093864;28;20432;-58
2023/03/04 12:20:33;;;;;;;2.17;1.47;;;10.50;86.50;;;;;;5093549;28;20459;-58
2023/03/04 12:23:10;;;;;;;2.30;1.23;;;10.60;86.60;;;;;;5093555;28;20436;-58
2023/03/04 12:25:44;;;;;;;2.50;1.67;;;10.60;86.80;;;;;;5092704;28;20851;-58
2023/03/04 12:28:51;;;;;;;4.10;1.60;;;10.70;87.20;;;;;;5093120;28;20432;-59
2023/03/04 12:31:37;;;;;;;3.00;1.50;;;10.90;86.20;;;;;;5090328;28;20943;-58
2023/03/04 12:34:31;;;;;;;4.40;1.10;;;10.80;85.20;;;;;;5096615;28;20536;-58
2023/03/04 12:37:26;;;;;;;4.83;1.87;;;10.80;85.00;;;;;;5096368;28;20428;-58
2023/03/04 12:40:11;;;;;;;2.53;1.00;;;11.10;85.80;;;;;;5091162;28;20487;-58
2023/03/04 12:42:49;;;;;;;6.90;1.30;;;11.50;83.70;;;;;;5096423;28;20436;-58
2023/03/04 12:45:21;;;;;;;1.53;1.33;;;11.60;82.20;;;;;;5096226;28;20452;-57
2023/03/04 12:47:57;;;;;;;2.47;1.53;;;11.30;82.60;;;;;;5096568;28;20432;-59
2023/03/04 12:50:32;;;;;;;3.57;1.20;;;11.00;83.70;;;;;;5096253;28;20470;-58
2023/03/04 12:53:08;;;;;;;3.13;1.50;;;10.70;85.20;;;;;;5096229;28;20797;-58
2023/03/04 12:55:37;;;;;;;4.50;1.80;;;10.50;85.70;;;;;;5096185;28;20471;-58
2023/03/04 12:58:05;;;;;;;6.17;1.43;;;10.30;87.20;;;;;;5096106;28;20447;-58